Lester B. Pearson International Airport
CYYZ : now visible

Airfield :











YOU CAN JOIN US ON...

 
LOGIN :

Register | Disclaimer

   EN    FR    IT 

 









Legend :    VFR   Marginal VFR   IFR   Intensive IFR   Very Intensive IFR
Visi :
Ceiling :
>= 8 km
>= 3000ft
5 to 8 km
1000 to 3000 ft
1500m to 5 km
500 to 1000 ft
800 to 1500m
200 to 500 ft
< 800m
< 200 ft
Symbols :   Thunderstorms  Fog  Heavy snow  Heavy precipitations  Wind > 20 kt






- Airport Elevation : 569 ft
- IATA code : YYZ


CYYZ - Lester B. Pearson International

CURRENT METAR :
  • 231400Z 19013KT 15SM FEW180 BKN250 02/M04 A3003 RMK AC2CI3 SLP178

EXPIRED METARs :
  • 231300Z 17011KT 15SM SCT180 BKN250 01/M05 A3004 RMK AC3CI4 SLP182
  • 231200Z 16012KT 15SM BKN180 M00/M06 A3004 RMK AC7 SLP182

TAF TAF CYYZ
Valid from the 23 at 12:00 until the 24 at 18:00 UTC


231138Z 2312/2418 17010KT P6SM SCT210
FM231500 22010G20KT P6SM SCT030 BKN180
FM232100 22012G22KT P6SM SCT030
FM240300 23012KT P6SM FEW020
FM241200 24008KT P6SM BKN020 RMK NXT FCST BY 231500Z



MET'MAP, your aeronautical weather chart ! - Copyright ORBIFLY December 2007 - Disclaimer

ORBIFLY MET'MAP TEAM :

Programming & Development : Alexandra Zaïnal
Concept & original design : Baudouin d'Aumeries
Assistance for programming : Marc-Olivier Méhu
Technical & hardware support : Manuel Goepfert

Contact : metmap@orbifly.com




SOURCES & CREDITS :

   NOAA       Earth
Advisory